createdAt,value
2023-01-07T00:01:36.861Z,8.27
2023-01-07T00:04:05.252Z,8.19
2023-01-07T00:06:34.933Z,8.25
2023-01-07T00:09:02.616Z,8.21
2023-01-07T00:11:35.652Z,8.32
2023-01-07T00:14:04.333Z,8.25
2023-01-07T00:16:33.029Z,8.19
2023-01-07T00:19:01.316Z,8.12
2023-01-07T00:21:31.039Z,8.11
2023-01-07T00:24:00.381Z,8.13
2023-01-07T00:26:30.868Z,8.09
2023-01-07T00:29:00.270Z,7.99
2023-01-07T00:31:29.476Z,8.17
2023-01-07T00:33:59.401Z,8.15
2023-01-07T00:36:28.606Z,8.31
2023-01-07T00:38:59.597Z,8.16
2023-01-07T00:41:26.884Z,8.16
2023-01-07T00:43:53.737Z,8.11
2023-01-07T00:46:21.015Z,8.10
2023-01-07T00:48:47.945Z,8.09
2023-01-07T00:51:15.846Z,8.15
2023-01-07T00:53:45.629Z,8.11
2023-01-07T00:56:14.574Z,8.09
2023-01-07T00:58:41.888Z,7.99
2023-01-07T01:01:10.877Z,7.89
2023-01-07T01:03:38.585Z,7.94
2023-01-07T01:06:09.559Z,7.93
2023-01-07T01:08:36.217Z,7.91
2023-01-07T01:11:08.041Z,7.95
2023-01-07T01:13:36.032Z,8.06
2023-01-07T01:16:09.358Z,8.07
2023-01-07T01:18:36.714Z,8.18
2023-01-07T01:21:06.821Z,8.06
2023-01-07T01:23:38.293Z,7.99
2023-01-07T01:26:05.819Z,8.00
2023-01-07T01:28:33.924Z,8.06
2023-01-07T01:31:00.782Z,7.89
2023-01-07T01:33:30.307Z,7.89
2023-01-07T01:35:57.172Z,7.89
2023-01-07T01:38:26.114Z,7.79
2023-01-07T01:40:52.763Z,7.86
2023-01-07T01:43:33.191Z,7.94
2023-01-07T01:46:29.158Z,7.95
2023-01-07T01:49:04.869Z,7.88
2023-01-07T01:51:34.753Z,7.84
2023-01-07T01:54:07.007Z,7.93
2023-01-07T01:56:37.152Z,7.86
2023-01-07T01:59:08.479Z,7.84
2023-01-07T02:01:37.020Z,7.74
2023-01-07T02:04:11.287Z,7.63
2023-01-07T02:06:44.054Z,7.64
2023-01-07T02:09:14.379Z,7.57
2023-01-07T02:11:51.789Z,7.62
2023-01-07T02:14:39.378Z,7.71
2023-01-07T02:17:29.651Z,7.66
2023-01-07T02:20:33.512Z,7.62
2023-01-07T02:23:31.143Z,7.63
2023-01-07T02:26:01.356Z,7.70
2023-01-07T02:28:46.600Z,7.68
2023-01-07T02:31:54.850Z,7.69
2023-01-07T02:34:44.218Z,7.75
2023-01-07T02:37:26.824Z,7.81
2023-01-07T02:40:21.185Z,7.84
2023-01-07T02:42:56.822Z,7.88
2023-01-07T02:45:33.890Z,7.97
2023-01-07T02:48:05.233Z,7.83
2023-01-07T02:50:32.238Z,7.88
2023-01-07T02:52:58.780Z,7.89
2023-01-07T02:56:09.148Z,7.85
2023-01-07T02:58:35.641Z,7.87
2023-01-07T03:01:17.404Z,7.89
2023-01-07T03:04:06.026Z,7.84
2023-01-07T03:06:43.447Z,7.83
2023-01-07T03:09:28.295Z,7.85
2023-01-07T03:11:59.023Z,7.79
2023-01-07T03:14:43.742Z,7.86
2023-01-07T03:17:17.334Z,7.90
2023-01-07T03:19:52.399Z,7.74
2023-01-07T03:22:22.310Z,7.82
2023-01-07T03:24:51.704Z,7.80
2023-01-07T03:27:20.521Z,7.87
2023-01-07T03:29:52.879Z,7.79
2023-01-07T03:32:27.139Z,7.97
2023-01-07T03:34:54.191Z,7.87
2023-01-07T03:37:23.497Z,7.81
2023-01-07T03:39:50.275Z,7.76
2023-01-07T03:42:40.630Z,7.69
2023-01-07T03:45:14.729Z,7.68
2023-01-07T03:47:44.360Z,7.62
2023-01-07T03:50:14.188Z,7.57
2023-01-07T03:52:40.881Z,7.60
2023-01-07T03:55:07.838Z,7.54
2023-01-07T03:57:34.397Z,7.67
2023-01-07T04:00:01.347Z,7.63
2023-01-07T04:02:28.200Z,7.61
2023-01-07T04:04:54.941Z,7.67
2023-01-07T04:07:21.498Z,7.66
2023-01-07T04:09:49.605Z,7.67
2023-01-07T04:12:16.669Z,7.63
2023-01-07T04:14:45.624Z,7.65
2023-01-07T04:17:14.627Z,7.58
2023-01-07T04:19:41.181Z,7.57
2023-01-07T04:22:10.410Z,7.50
2023-01-07T04:24:36.972Z,7.48
2023-01-07T04:27:03.944Z,7.56
2023-01-07T04:29:30.720Z,7.57
2023-01-07T04:31:57.833Z,7.57
2023-01-07T04:34:28.670Z,7.49
2023-01-07T04:36:55.359Z,7.48
2023-01-07T04:39:21.951Z,7.46
2023-01-07T04:41:48.499Z,7.40
2023-01-07T04:44:17.486Z,7.41
2023-01-07T04:46:44.993Z,7.37
2023-01-07T04:49:11.793Z,7.41
2023-01-07T04:51:38.390Z,7.47
2023-01-07T04:54:07.395Z,7.27
2023-01-07T04:56:34.019Z,7.26
2023-01-07T04:59:00.598Z,7.27
2023-01-07T05:01:31.003Z,7.21
2023-01-07T05:03:57.837Z,7.20
2023-01-07T05:06:24.736Z,7.16
2023-01-07T05:08:52.652Z,7.17
2023-01-07T05:11:21.837Z,7.28
2023-01-07T05:13:52.286Z,7.45
2023-01-07T05:16:19.215Z,7.18
2023-01-07T05:18:45.951Z,7.17
2023-01-07T05:21:12.676Z,7.03
2023-01-07T05:23:39.443Z,6.89
2023-01-07T05:26:06.440Z,6.95
2023-01-07T05:28:32.997Z,6.95
2023-01-07T05:30:59.639Z,7.03
2023-01-07T05:33:26.264Z,6.94
2023-01-07T05:35:53.063Z,6.88
2023-01-07T05:38:19.644Z,6.85
2023-01-07T05:40:50.216Z,6.88
2023-01-07T05:43:17.511Z,6.75
2023-01-07T05:45:45.891Z,6.74
2023-01-07T05:48:13.638Z,6.69
2023-01-07T05:50:40.372Z,6.58
2023-01-07T05:53:06.939Z,6.46
2023-01-07T05:55:33.859Z,6.38
2023-01-07T05:58:00.733Z,6.29
2023-01-07T06:00:27.375Z,6.17
2023-01-07T06:02:53.942Z,6.19
2023-01-07T06:05:22.896Z,6.09
2023-01-07T06:07:49.568Z,6.09
2023-01-07T06:10:16.239Z,6.01
2023-01-07T06:12:42.820Z,5.83
2023-01-07T06:15:09.773Z,5.82
2023-01-07T06:17:36.571Z,5.90
2023-01-07T06:20:03.527Z,5.95
2023-01-07T06:22:30.148Z,5.80
2023-01-07T06:24:56.730Z,5.64
2023-01-07T06:27:23.449Z,5.51
2023-01-07T06:29:50.024Z,5.54
2023-01-07T06:32:16.627Z,5.56
2023-01-07T06:34:43.263Z,5.33
2023-01-07T06:37:14.936Z,5.26
2023-01-07T06:39:43.819Z,5.28
2023-01-07T06:42:10.515Z,5.21
2023-01-07T06:44:37.152Z,5.11
2023-01-07T06:47:03.864Z,5.11
2023-01-07T06:49:30.408Z,4.87
2023-01-07T06:51:56.962Z,4.83
2023-01-07T06:54:23.517Z,4.82
2023-01-07T06:56:50.137Z,4.86
2023-01-07T06:59:16.680Z,4.69
2023-01-07T07:01:45.655Z,4.76
2023-01-07T07:04:13.052Z,4.69
2023-01-07T07:06:39.650Z,4.61
2023-01-07T07:09:06.213Z,4.70
2023-01-07T07:11:34.940Z,4.50
2023-01-07T07:14:01.609Z,4.62
2023-01-07T07:16:29.364Z,4.53
2023-01-07T07:18:56.817Z,4.52
2023-01-07T07:21:23.413Z,4.52
2023-01-07T07:23:52.415Z,4.51
2023-01-07T07:26:18.964Z,4.50
2023-01-07T07:28:45.579Z,4.40
2023-01-07T07:31:12.244Z,4.34
2023-01-07T07:33:38.860Z,4.32
2023-01-07T07:36:05.713Z,4.32
2023-01-07T07:38:32.291Z,4.37
2023-01-07T07:41:00.484Z,4.38
2023-01-07T07:43:29.300Z,4.40
2023-01-07T07:45:57.885Z,4.49
2023-01-07T07:48:24.596Z,4.35
2023-01-07T07:50:52.118Z,4.49
2023-01-07T07:53:19.628Z,4.62
2023-01-07T07:55:46.649Z,4.55
2023-01-07T07:58:13.781Z,4.58
2023-01-07T08:00:40.444Z,4.95
2023-01-07T08:03:10.355Z,4.86
2023-01-07T08:05:41.327Z,4.78
2023-01-07T08:08:09.507Z,4.78
2023-01-07T08:10:36.107Z,4.67
2023-01-07T08:13:02.933Z,4.68
2023-01-07T08:15:29.522Z,4.83
2023-01-07T08:18:04.265Z,4.91
2023-01-07T08:20:35.143Z,4.88
2023-01-07T08:23:03.654Z,5.00
2023-01-07T08:25:32.332Z,5.07
2023-01-07T08:28:00.077Z,5.19
2023-01-07T08:30:27.239Z,5.29
2023-01-07T08:32:53.933Z,5.33
2023-01-07T08:35:21.353Z,5.39
2023-01-07T08:37:48.008Z,5.41
2023-01-07T08:40:14.602Z,5.48
2023-01-07T08:42:41.629Z,5.65
2023-01-07T08:45:09.834Z,5.63
2023-01-07T08:47:36.507Z,5.68
2023-01-07T08:50:04.048Z,5.81
2023-01-07T08:52:30.533Z,5.92
2023-01-07T08:54:56.980Z,6.16
2023-01-07T08:57:23.462Z,6.42
2023-01-07T08:59:50.117Z,6.43
2023-01-07T09:02:18.935Z,6.57
2023-01-07T09:04:45.701Z,6.64
2023-01-07T09:07:12.683Z,6.81
2023-01-07T09:09:39.219Z,7.02
2023-01-07T09:12:06.411Z,7.11
2023-01-07T09:14:32.995Z,7.17
2023-01-07T09:16:59.949Z,7.55
2023-01-07T09:19:26.385Z,7.91
2023-01-07T09:21:52.869Z,7.91
2023-01-07T09:24:19.334Z,8.10
2023-01-07T09:26:46.264Z,8.24
2023-01-07T09:29:12.730Z,8.51
2023-01-07T09:31:39.381Z,8.49
2023-01-07T09:34:05.920Z,8.57
2023-01-07T09:36:33.623Z,8.76
2023-01-07T09:39:00.256Z,8.98
2023-01-07T09:41:47.422Z,9.31
2023-01-07T09:44:49.396Z,9.68
2023-01-07T09:47:19.418Z,9.95
2023-01-07T09:49:50.839Z,10.37
2023-01-07T09:52:33.415Z,10.63
2023-01-07T09:55:23.008Z,10.55
2023-01-07T09:57:49.696Z,10.50
2023-01-07T10:00:22.898Z,10.87
2023-01-07T10:02:52.662Z,10.85
2023-01-07T10:05:34.486Z,11.03
2023-01-07T10:08:29.008Z,11.07
2023-01-07T10:11:25.892Z,11.16
2023-01-07T10:14:23.055Z,11.06
2023-01-07T10:17:22.807Z,10.74
2023-01-07T10:20:15.513Z,10.86
2023-01-07T10:23:15.136Z,11.09
2023-01-07T10:25:49.508Z,11.19
2023-01-07T10:28:32.315Z,11.32
2023-01-07T10:31:00.507Z,11.18
2023-01-07T10:33:29.812Z,11.16
2023-01-07T10:36:15.062Z,11.35
2023-01-07T10:38:44.844Z,11.17
2023-01-07T10:41:25.540Z,11.25
2023-01-07T10:44:10.224Z,11.11
2023-01-07T10:46:43.372Z,11.07
2023-01-07T10:49:25.212Z,11.16
2023-01-07T10:52:23.718Z,11.05
2023-01-07T10:55:02.577Z,11.21
2023-01-07T10:57:31.570Z,11.20
2023-01-07T11:00:02.604Z,11.15
2023-01-07T11:02:31.638Z,11.12
2023-01-07T11:04:59.888Z,11.24
2023-01-07T11:07:47.022Z,11.31
2023-01-07T11:10:24.112Z,11.36
2023-01-07T11:12:55.583Z,11.29
2023-01-07T11:15:32.473Z,11.43
2023-01-07T11:18:04.014Z,11.51
2023-01-07T11:20:50.759Z,11.61
2023-01-07T11:23:37.648Z,11.72
2023-01-07T11:26:13.347Z,11.87
2023-01-07T11:28:50.558Z,12.22
2023-01-07T11:31:17.603Z,12.18
2023-01-07T11:34:02.206Z,12.29
2023-01-07T11:36:43.230Z,12.32
2023-01-07T11:39:17.853Z,12.29
2023-01-07T11:42:22.197Z,12.48
2023-01-07T11:44:48.783Z,12.07
2023-01-07T11:47:17.445Z,12.11
2023-01-07T11:49:45.794Z,12.05
2023-01-07T11:52:21.377Z,11.98
2023-01-07T11:54:54.731Z,11.87
2023-01-07T11:57:25.496Z,11.77
2023-01-07T12:00:10.802Z,11.99
2023-01-07T12:02:39.920Z,12.00
2023-01-07T12:05:18.940Z,12.12
2023-01-07T12:07:47.801Z,12.24
2023-01-07T12:10:28.402Z,12.12
2023-01-07T12:12:55.557Z,12.18
2023-01-07T12:15:27.397Z,12.16
2023-01-07T12:18:09.364Z,12.22
2023-01-07T12:20:38.961Z,12.26
2023-01-07T12:23:31.328Z,12.24
2023-01-07T12:26:18.283Z,12.35
2023-01-07T12:28:44.790Z,12.23
2023-01-07T12:31:18.227Z,12.29
2023-01-07T12:34:10.529Z,12.52
2023-01-07T12:36:49.977Z,12.53
2023-01-07T12:39:24.387Z,12.33
2023-01-07T12:42:01.363Z,12.32
2023-01-07T12:44:30.258Z,12.23
2023-01-07T12:47:30.774Z,12.23
2023-01-07T12:50:16.595Z,12.27
2023-01-07T12:52:51.974Z,12.15
2023-01-07T12:55:21.042Z,12.22
2023-01-07T12:58:00.802Z,12.19
2023-01-07T13:00:36.763Z,12.16
2023-01-07T13:03:50.504Z,12.15
2023-01-07T13:06:55.326Z,12.07
2023-01-07T13:09:35.246Z,12.06
2023-01-07T13:12:41.952Z,12.04
2023-01-07T13:15:20.890Z,11.88
2023-01-07T13:17:53.923Z,11.88
2023-01-07T13:20:34.721Z,11.82
2023-01-07T13:23:04.494Z,11.70
2023-01-07T13:25:40.043Z,11.77
2023-01-07T13:28:27.623Z,11.83
2023-01-07T13:31:21.713Z,11.73
2023-01-07T13:34:00.589Z,11.82
2023-01-07T13:36:39.293Z,11.67
2023-01-07T13:39:46.650Z,11.62
2023-01-07T13:42:35.027Z,11.61
2023-01-07T13:45:25.929Z,11.59
2023-01-07T13:47:56.120Z,11.56
2023-01-07T13:50:33.624Z,11.51
2023-01-07T13:53:06.446Z,11.45
2023-01-07T13:55:35.395Z,11.42
2023-01-07T13:58:30.725Z,11.43
2023-01-07T14:01:14.809Z,11.42
2023-01-07T14:03:51.699Z,11.35
2023-01-07T14:06:21.204Z,11.35
2023-01-07T14:08:55.925Z,11.33
2023-01-07T14:11:35.350Z,11.30
2023-01-07T14:14:26.180Z,11.20
2023-01-07T14:17:14.310Z,11.17
2023-01-07T14:19:56.118Z,11.16
2023-01-07T14:22:40.764Z,11.18
2023-01-07T14:25:25.906Z,11.10
2023-01-07T14:27:55.643Z,11.10
2023-01-07T14:30:27.216Z,11.11
2023-01-07T14:33:02.932Z,11.13
2023-01-07T14:35:43.244Z,11.08
2023-01-07T14:38:31.560Z,10.97
2023-01-07T14:41:09.206Z,10.96
2023-01-07T14:43:45.659Z,10.97
2023-01-07T14:46:46.438Z,10.91
2023-01-07T14:49:41.461Z,10.80
2023-01-07T14:52:17.635Z,10.72
2023-01-07T14:55:08.889Z,10.68
2023-01-07T14:57:36.162Z,10.47
2023-01-07T15:00:14.954Z,10.35
2023-01-07T15:02:50.579Z,10.28
2023-01-07T15:05:51.284Z,10.24
2023-01-07T15:08:39.476Z,10.16
2023-01-07T15:11:37.188Z,10.07
2023-01-07T15:14:31.741Z,10.14
2023-01-07T15:16:58.774Z,9.91
2023-01-07T15:19:25.511Z,9.98
2023-01-07T15:22:21.468Z,9.92
2023-01-07T15:25:08.607Z,9.82
2023-01-07T15:27:51.497Z,9.72
2023-01-07T15:30:29.265Z,9.61
2023-01-07T15:33:01.718Z,9.51
2023-01-07T15:35:34.188Z,9.49
2023-01-07T15:38:05.058Z,9.37
2023-01-07T15:40:31.866Z,9.16
2023-01-07T15:42:59.084Z,9.02
2023-01-07T15:45:27.796Z,8.96
2023-01-07T15:48:05.951Z,8.79
2023-01-07T15:50:40.927Z,8.74
2023-01-07T15:53:10.544Z,8.52
2023-01-07T15:55:38.539Z,8.47
2023-01-07T15:58:12.263Z,8.45
2023-01-07T16:00:38.846Z,8.16
2023-01-07T16:03:08.406Z,8.03
2023-01-07T16:05:38.379Z,8.09
2023-01-07T16:08:05.474Z,8.14
2023-01-07T16:10:35.736Z,8.02
2023-01-07T16:13:16.312Z,7.80
2023-01-07T16:15:42.975Z,7.67
2023-01-07T16:18:09.546Z,7.79
2023-01-07T16:20:48.910Z,7.71
2023-01-07T16:23:25.977Z,7.72
2023-01-07T16:26:04.191Z,7.45
2023-01-07T16:28:38.819Z,7.37
2023-01-07T16:31:09.116Z,7.30
2023-01-07T16:33:37.804Z,6.92
2023-01-07T16:36:13.994Z,6.93
2023-01-07T16:38:40.856Z,7.02
2023-01-07T16:41:07.771Z,7.04
2023-01-07T16:43:40.474Z,7.01
2023-01-07T16:46:26.999Z,6.90
2023-01-07T16:49:09.071Z,7.07
2023-01-07T16:51:40.955Z,7.09
2023-01-07T16:54:25.793Z,6.88
2023-01-07T16:56:56.848Z,6.71
2023-01-07T16:59:28.758Z,6.85
2023-01-07T17:01:57.206Z,6.88
2023-01-07T17:04:28.008Z,6.74
2023-01-07T17:06:54.728Z,6.66
2023-01-07T17:09:31.480Z,6.32
2023-01-07T17:11:57.996Z,6.27
2023-01-07T17:14:33.651Z,6.28
2023-01-07T17:17:08.916Z,6.28
2023-01-07T17:19:46.210Z,6.26
2023-01-07T17:22:29.658Z,6.18
2023-01-07T17:25:09.839Z,5.87
2023-01-07T17:27:44.190Z,5.80
2023-01-07T17:30:21.422Z,5.87
2023-01-07T17:32:50.831Z,5.82
2023-01-07T17:35:23.440Z,5.86
2023-01-07T17:37:50.849Z,5.81
2023-01-07T17:40:18.078Z,5.66
2023-01-07T17:43:07.225Z,5.42
2023-01-07T17:45:33.981Z,5.46
2023-01-07T17:48:08.407Z,5.38
2023-01-07T17:50:37.099Z,5.41
2023-01-07T17:53:04.339Z,5.67
2023-01-07T17:55:34.471Z,5.55
2023-01-07T17:58:01.045Z,5.41
2023-01-07T18:00:30.838Z,5.07
2023-01-07T18:02:58.231Z,5.24
2023-01-07T18:05:26.370Z,5.26
2023-01-07T18:07:53.560Z,5.15
2023-01-07T18:10:26.076Z,5.15
2023-01-07T18:12:52.707Z,5.03
2023-01-07T18:15:27.745Z,5.15
2023-01-07T18:17:54.324Z,4.85
2023-01-07T18:20:22.220Z,5.04
2023-01-07T18:22:49.046Z,4.80
2023-01-07T18:25:21.320Z,4.77
2023-01-07T18:27:52.541Z,4.76
2023-01-07T18:30:21.359Z,4.96
2023-01-07T18:32:48.458Z,4.94
2023-01-07T18:35:19.197Z,4.76
2023-01-07T18:37:50.282Z,4.55
2023-01-07T18:40:17.804Z,4.46
2023-01-07T18:42:44.463Z,4.53
2023-01-07T18:45:11.345Z,4.63
2023-01-07T18:47:38.114Z,4.49
2023-01-07T18:50:06.401Z,4.21
2023-01-07T18:52:33.932Z,4.21
2023-01-07T18:55:02.795Z,4.22
2023-01-07T18:57:29.383Z,4.25
2023-01-07T18:59:55.975Z,4.32
2023-01-07T19:02:22.602Z,4.47
2023-01-07T19:04:51.682Z,4.48
2023-01-07T19:07:19.023Z,4.24
2023-01-07T19:09:45.827Z,3.97
2023-01-07T19:12:12.564Z,4.05
2023-01-07T19:14:40.496Z,4.00
2023-01-07T19:17:08.035Z,4.16
2023-01-07T19:19:47.771Z,4.03
2023-01-07T19:22:16.189Z,4.05
2023-01-07T19:24:43.100Z,4.06
2023-01-07T19:27:12.444Z,3.97
2023-01-07T19:29:39.020Z,3.86
2023-01-07T19:32:07.957Z,3.81
2023-01-07T19:34:34.567Z,3.59
2023-01-07T19:37:01.300Z,3.57
2023-01-07T19:39:30.318Z,3.36
2023-01-07T19:41:56.921Z,3.55
2023-01-07T19:44:23.515Z,3.49
2023-01-07T19:46:52.297Z,3.55
2023-01-07T19:49:18.863Z,3.78
2023-01-07T19:51:45.495Z,3.65
2023-01-07T19:54:16.877Z,3.42
2023-01-07T19:56:43.851Z,3.56
2023-01-07T19:59:10.860Z,3.48
2023-01-07T20:01:38.982Z,3.53
2023-01-07T20:04:07.391Z,3.64
2023-01-07T20:06:38.846Z,3.79
2023-01-07T20:09:10.721Z,3.68
2023-01-07T20:11:38.889Z,3.74
2023-01-07T20:14:07.519Z,3.35
2023-01-07T20:16:39.544Z,3.26
2023-01-07T20:19:06.577Z,3.42
2023-01-07T20:21:33.529Z,3.37
2023-01-07T20:24:00.293Z,3.22
2023-01-07T20:26:29.907Z,3.16
2023-01-07T20:28:59.252Z,3.14
2023-01-07T20:31:28.242Z,3.04
2023-01-07T20:33:57.780Z,2.99
2023-01-07T20:36:27.389Z,3.12
2023-01-07T20:38:54.134Z,2.98
2023-01-07T20:41:23.191Z,2.97
2023-01-07T20:43:58.044Z,3.11
2023-01-07T20:46:26.133Z,3.14
2023-01-07T20:48:53.072Z,2.88
2023-01-07T20:51:19.981Z,2.73
2023-01-07T20:53:47.055Z,2.88
2023-01-07T20:56:17.929Z,2.76
2023-01-07T20:58:45.021Z,2.67
2023-01-07T21:01:14.279Z,2.84
2023-01-07T21:03:41.389Z,2.79
2023-01-07T21:06:12.427Z,2.63
2023-01-07T21:08:39.677Z,2.65
2023-01-07T21:11:14.844Z,2.61
2023-01-07T21:13:41.658Z,2.75
2023-01-07T21:16:08.645Z,2.95
2023-01-07T21:18:35.426Z,2.97
2023-01-07T21:21:11.574Z,2.83
2023-01-07T21:23:38.261Z,2.82
2023-01-07T21:26:05.737Z,2.75
2023-01-07T21:28:32.841Z,2.57
2023-01-07T21:31:06.014Z,2.59
2023-01-07T21:33:33.497Z,2.59
2023-01-07T21:36:00.097Z,2.55
2023-01-07T21:38:26.639Z,2.41
2023-01-07T21:40:54.011Z,2.53
2023-01-07T21:43:20.543Z,2.50
2023-01-07T21:45:47.045Z,2.49
2023-01-07T21:48:13.561Z,2.33
2023-01-07T21:50:40.077Z,2.45
2023-01-07T21:53:09.049Z,2.32
2023-01-07T21:55:37.909Z,2.25
2023-01-07T21:58:04.428Z,2.27
2023-01-07T22:00:30.867Z,2.35
2023-01-07T22:02:57.396Z,2.30
2023-01-07T22:05:23.883Z,2.15
2023-01-07T22:07:50.348Z,2.16
2023-01-07T22:10:16.873Z,2.04
2023-01-07T22:12:43.443Z,2.06
2023-01-07T22:15:10.126Z,1.93
2023-01-07T22:17:36.617Z,2.05
2023-01-07T22:20:05.970Z,2.07
2023-01-07T22:22:32.449Z,1.99
2023-01-07T22:24:59.122Z,1.96
2023-01-07T22:27:25.584Z,1.72
2023-01-07T22:29:52.052Z,1.80
2023-01-07T22:32:18.692Z,1.70
2023-01-07T22:34:45.149Z,1.64
2023-01-07T22:37:15.653Z,1.76
2023-01-07T22:39:54.070Z,1.84
2023-01-07T22:42:25.179Z,1.80
2023-01-07T22:45:03.043Z,1.81
2023-01-07T22:47:35.364Z,1.84
2023-01-07T22:50:04.527Z,1.70
2023-01-07T22:52:31.295Z,1.66
2023-01-07T22:55:00.543Z,1.76
2023-01-07T22:57:28.326Z,1.55
2023-01-07T22:59:54.912Z,1.66
2023-01-07T23:02:21.377Z,1.46
2023-01-07T23:04:47.820Z,1.48
2023-01-07T23:07:14.316Z,1.75
2023-01-07T23:09:41.619Z,1.60
2023-01-07T23:12:11.020Z,1.47
2023-01-07T23:14:37.484Z,1.52
2023-01-07T23:17:03.996Z,1.35
2023-01-07T23:19:32.086Z,1.44
2023-01-07T23:21:59.023Z,1.55
2023-01-07T23:24:25.492Z,1.45
2023-01-07T23:26:53.646Z,1.42
2023-01-07T23:29:20.586Z,1.22
2023-01-07T23:31:47.188Z,1.26
2023-01-07T23:34:14.767Z,1.25
2023-01-07T23:36:41.335Z,1.14
2023-01-07T23:39:07.951Z,1.12
2023-01-07T23:41:34.859Z,1.14
2023-01-07T23:44:01.664Z,1.31
2023-01-07T23:46:28.236Z,1.19
2023-01-07T23:48:54.715Z,1.12
2023-01-07T23:51:21.848Z,1.16
2023-01-07T23:53:49.066Z,1.23
2023-01-07T23:56:19.291Z,1.17
2023-01-07T23:58:48.900Z,1.05
